Time;durP1;ratioP1;P1;durP2;ratioP2;P2;SDS_P1;SDS_P2;PMS_P1;PMS_P2;Temp;Humidity;BMP_temperature;BMP_pressure;BME280_temperature;BME280_humidity;BME280_pressure;Samples;Min_cycle;Max_cycle;Signal;HPM_P1;HPM_P2
2021/08/25 00:01:06;;;;;;;4.47;3.50;;;17.10;99.90;;;;;;4142735;28;20022;-68
2021/08/25 00:03:07;;;;;;;5.80;3.47;;;17.10;99.90;;;;;;4143919;28;20828;-67
2021/08/25 00:05:09;;;;;;;4.68;3.33;;;17.10;99.90;;;;;;4142588;28;20026;-66
2021/08/25 00:07:12;;;;;;;4.40;3.65;;;17.10;99.90;;;;;;4143329;28;20092;-67
2021/08/25 00:09:13;;;;;;;4.32;3.50;;;17.20;99.90;;;;;;4143152;28;20037;-67
2021/08/25 00:11:14;;;;;;;5.55;3.30;;;17.10;99.90;;;;;;4143244;28;20498;-66
2021/08/25 00:13:15;;;;;;;3.70;3.15;;;17.10;99.90;;;;;;4142883;28;20510;-66
2021/08/25 00:15:16;;;;;;;4.03;3.50;;;17.20;99.90;;;;;;4142776;28;20038;-67
2021/08/25 00:17:19;;;;;;;4.22;2.88;;;17.20;99.90;;;;;;4143602;28;20088;-65
2021/08/25 00:19:20;;;;;;;5.93;3.30;;;17.20;99.90;;;;;;4142393;28;20038;-66
2021/08/25 00:21:21;;;;;;;4.35;3.33;;;17.20;99.90;;;;;;4144742;28;20030;-67
2021/08/25 00:23:22;;;;;;;4.43;3.15;;;17.20;99.90;;;;;;4142439;28;20049;-67
2021/08/25 00:25:24;;;;;;;3.65;3.30;;;17.20;99.90;;;;;;4143589;28;20045;-67
2021/08/25 00:27:25;;;;;;;3.72;3.40;;;17.20;99.90;;;;;;4156573;28;20026;-67
2021/08/25 00:29:26;;;;;;;3.80;3.08;;;17.20;99.90;;;;;;4159594;28;20527;-67
2021/08/25 00:31:27;;;;;;;5.55;3.60;;;17.20;99.90;;;;;;4158802;28;20079;-66
2021/08/25 00:33:28;;;;;;;3.80;3.50;;;17.30;99.90;;;;;;4148929;28;20069;-67
2021/08/25 00:35:29;;;;;;;4.38;3.42;;;17.20;99.90;;;;;;4142660;28;20087;-65
2021/08/25 00:37:30;;;;;;;5.00;3.85;;;17.30;99.90;;;;;;4143330;28;20084;-67
2021/08/25 00:39:31;;;;;;;4.25;3.42;;;17.30;99.90;;;;;;4141088;28;20073;-68
2021/08/25 00:41:32;;;;;;;3.92;3.53;;;17.30;99.90;;;;;;4142456;28;20124;-67
2021/08/25 00:43:34;;;;;;;3.63;3.25;;;17.30;99.90;;;;;;4142660;28;20030;-67
2021/08/25 00:45:42;;;;;;;4.75;3.83;;;17.30;99.90;;;;;;4159168;28;20051;-66
2021/08/25 00:47:43;;;;;;;7.53;4.05;;;17.30;99.90;;;;;;4159179;28;20548;-65
2021/08/25 00:49:45;;;;;;;5.68;3.72;;;17.30;99.90;;;;;;4158582;28;20087;-67
2021/08/25 00:51:47;;;;;;;5.60;3.90;;;17.30;99.90;;;;;;4159228;28;20029;-66
2021/08/25 00:53:48;;;;;;;4.80;3.80;;;17.20;99.90;;;;;;4158109;28;20021;-67
2021/08/25 00:55:52;;;;;;;5.25;3.47;;;17.20;99.90;;;;;;4159763;28;20485;-67
2021/08/25 00:57:53;;;;;;;6.47;3.50;;;17.20;99.90;;;;;;4156172;28;20099;-67
2021/08/25 00:59:54;;;;;;;4.93;3.70;;;17.20;99.90;;;;;;4141869;28;20046;-67
2021/08/25 01:02:34;;;;;;;4.80;3.70;;;17.10;99.90;;;;;;4141334;28;20029;-66
2021/08/25 01:04:43;;;;;;;4.35;3.90;;;17.20;99.90;;;;;;4142733;28;20038;-66
2021/08/25 01:06:46;;;;;;;4.68;3.83;;;17.10;99.90;;;;;;4142158;28;20038;-67
2021/08/25 01:08:48;;;;;;;4.68;3.90;;;17.10;99.90;;;;;;4143179;28;20049;-67
2021/08/25 01:10:49;;;;;;;7.05;3.58;;;17.10;99.90;;;;;;4141455;28;20026;-67
2021/08/25 01:12:52;;;;;;;6.60;4.65;;;17.10;99.90;;;;;;4142003;28;20536;-66
2021/08/25 01:14:54;;;;;;;17.13;7.43;;;17.10;99.90;;;;;;4142133;28;20564;-67
2021/08/25 01:16:56;;;;;;;12.70;6.68;;;17.00;99.90;;;;;;4142972;28;20096;-66
2021/08/25 01:18:58;;;;;;;27.48;8.40;;;17.00;99.90;;;;;;4141592;28;20079;-67
2021/08/25 01:21:00;;;;;;;24.63;7.95;;;16.90;99.90;;;;;;4143056;28;20038;-67
2021/08/25 01:23:01;;;;;;;13.38;6.63;;;16.80;99.90;;;;;;4148584;28;20033;-65
2021/08/25 01:25:04;;;;;;;12.18;7.25;;;16.70;99.90;;;;;;4158434;28;20080;-67
2021/08/25 01:27:07;;;;;;;12.55;5.82;;;16.70;99.90;;;;;;4156684;28;20069;-67
2021/08/25 01:29:35;;;;;;;11.50;6.85;;;16.70;99.90;;;;;;4158403;28;20080;-67
2021/08/25 01:31:36;;;;;;;10.95;8.55;;;16.70;99.90;;;;;;4156468;28;20413;-67
2021/08/25 01:33:37;;;;;;;11.55;9.80;;;16.70;99.90;;;;;;4156807;28;20037;-66
2021/08/25 01:35:40;;;;;;;9.55;7.80;;;16.70;99.90;;;;;;4141843;28;20084;-66
2021/08/25 01:37:42;;;;;;;10.25;6.75;;;16.70;99.90;;;;;;4141925;28;20034;-66
2021/08/25 01:39:43;;;;;;;10.23;7.57;;;16.70;99.90;;;;;;4142101;28;20038;-67
2021/08/25 01:41:44;;;;;;;10.13;8.25;;;16.70;99.90;;;;;;4140919;28;20380;-67
2021/08/25 01:43:46;;;;;;;10.35;9.10;;;16.70;99.90;;;;;;4140370;28;20038;-66
2021/08/25 01:45:47;;;;;;;12.30;9.00;;;16.70;99.90;;;;;;4141566;28;20032;-67
2021/08/25 01:47:48;;;;;;;10.65;8.80;;;16.70;99.90;;;;;;4142687;28;20038;-66
2021/08/25 01:49:51;;;;;;;10.57;8.50;;;16.60;99.90;;;;;;4140913;28;20092;-67
2021/08/25 01:51:57;;;;;;;10.65;7.82;;;16.50;99.90;;;;;;4142386;28;20107;-66
2021/08/25 01:54:00;;;;;;;10.40;8.43;;;16.50;99.90;;;;;;4141239;28;20029;-66
2021/08/25 01:56:01;;;;;;;12.10;8.27;;;16.40;99.90;;;;;;4142220;28;20038;-66
2021/08/25 01:58:03;;;;;;;13.75;8.98;;;16.40;99.90;;;;;;4140893;28;20100;-66
2021/08/25 02:00:05;;;;;;;9.02;7.03;;;16.30;99.90;;;;;;4141701;28;20030;-66
2021/08/25 02:02:07;;;;;;;10.10;7.03;;;16.30;99.90;;;;;;4141254;28;20060;-67
2021/08/25 02:04:08;;;;;;;10.88;6.43;;;16.30;99.90;;;;;;4141809;28;20030;-65
2021/08/25 02:06:09;;;;;;;8.98;6.40;;;16.20;99.90;;;;;;4140965;28;20073;-66
2021/08/25 02:08:11;;;;;;;9.50;6.65;;;16.10;99.90;;;;;;4141738;28;20102;-67
2021/08/25 02:10:14;;;;;;;11.98;7.90;;;16.00;99.90;;;;;;4139975;28;20088;-65
2021/08/25 02:12:15;;;;;;;9.10;6.75;;;16.00;99.90;;;;;;4141534;28;20453;-66
2021/08/25 02:14:16;;;;;;;9.77;6.00;;;15.90;99.90;;;;;;4157966;28;20100;-66
2021/08/25 02:16:17;;;;;;;8.82;7.60;;;15.90;99.90;;;;;;4157604;28;20041;-66
2021/08/25 02:18:19;;;;;;;10.52;7.15;;;15.80;99.90;;;;;;4157685;28;20095;-66
2021/08/25 02:20:20;;;;;;;7.53;6.65;;;15.80;99.90;;;;;;4156971;28;20037;-67
2021/08/25 02:22:21;;;;;;;16.70;7.20;;;15.70;99.90;;;;;;4158234;28;20046;-67
2021/08/25 02:24:22;;;;;;;12.57;8.10;;;15.70;99.90;;;;;;4157010;28;20033;-66
2021/08/25 02:26:23;;;;;;;13.38;8.52;;;15.60;99.90;;;;;;4157448;28;20853;-66
2021/08/25 02:28:24;;;;;;;9.55;5.00;;;15.60;99.90;;;;;;4155998;28;20477;-66
2021/08/25 02:30:25;;;;;;;8.23;7.43;;;15.50;99.90;;;;;;4158102;28;20729;-67
2021/08/25 02:32:27;;;;;;;16.85;7.57;;;15.50;99.90;;;;;;4156930;28;20045;-67
2021/08/25 02:34:28;;;;;;;18.67;7.75;;;15.40;99.90;;;;;;4150447;28;20452;-67
2021/08/25 02:36:29;;;;;;;16.83;8.23;;;15.30;99.90;;;;;;4155217;28;20037;-66
2021/08/25 02:38:30;;;;;;;16.23;10.82;;;15.20;99.90;;;;;;4141122;28;20065;-67
2021/08/25 02:40:32;;;;;;;17.15;11.43;;;15.20;99.90;;;;;;4140775;28;20084;-66
2021/08/25 02:42:33;;;;;;;11.50;7.82;;;15.20;99.90;;;;;;4140591;28;20041;-67
2021/08/25 02:44:34;;;;;;;7.60;5.47;;;15.10;99.90;;;;;;4156047;28;20041;-66
2021/08/25 02:46:35;;;;;;;6.47;4.63;;;15.20;99.90;;;;;;4140246;28;20030;-67
2021/08/25 02:48:37;;;;;;;7.75;4.40;;;15.10;99.90;;;;;;4141521;28;20033;-67
2021/08/25 02:50:38;;;;;;;6.43;3.88;;;15.10;99.90;;;;;;4140509;28;20429;-67
2021/08/25 02:52:39;;;;;;;6.65;3.97;;;15.20;99.90;;;;;;4141539;28;20033;-66
2021/08/25 02:54:40;;;;;;;4.43;4.00;;;15.10;99.90;;;;;;4139937;28;20034;-67
2021/08/25 02:56:41;;;;;;;8.60;4.20;;;15.10;99.90;;;;;;4140991;28;20434;-68
2021/08/25 02:58:42;;;;;;;5.82;4.00;;;15.10;99.90;;;;;;4140239;28;20084;-67
2021/08/25 03:00:43;;;;;;;5.85;3.95;;;15.20;99.90;;;;;;4141293;28;20029;-66
2021/08/25 03:02:44;;;;;;;6.43;3.08;;;15.20;99.90;;;;;;4145472;28;20053;-67
2021/08/25 03:04:45;;;;;;;4.68;3.60;;;15.20;99.90;;;;;;4157280;28;20095;-66
2021/08/25 03:06:47;;;;;;;10.68;4.63;;;15.20;99.90;;;;;;4156513;28;20017;-66
2021/08/25 03:08:48;;;;;;;5.28;3.65;;;15.00;99.90;;;;;;4156081;28;20084;-66
2021/08/25 03:10:49;;;;;;;6.50;4.00;;;15.00;99.90;;;;;;4156993;28;20030;-66
2021/08/25 03:12:50;;;;;;;5.68;4.10;;;15.00;99.90;;;;;;4151815;28;20042;-67
2021/08/25 03:14:51;;;;;;;6.80;4.80;;;15.10;99.90;;;;;;4140943;28;20030;-68
2021/08/25 03:16:52;;;;;;;7.72;5.63;;;15.10;99.90;;;;;;4140271;28;20030;-65
2021/08/25 03:18:53;;;;;;;8.55;5.43;;;15.10;99.90;;;;;;4140616;28;20116;-66
2021/08/25 03:20:55;;;;;;;10.77;8.00;;;15.10;99.90;;;;;;4140128;28;20037;-67
2021/08/25 03:22:56;;;;;;;14.35;10.90;;;15.20;99.90;;;;;;4153014;28;20103;-67
2021/08/25 03:24:57;;;;;;;11.80;10.48;;;15.10;99.90;;;;;;4159475;28;20133;-67
2021/08/25 03:26:58;;;;;;;12.65;7.43;;;15.20;99.90;;;;;;4160585;28;20446;-66
2021/08/25 03:28:59;;;;;;;10.20;8.10;;;15.20;99.90;;;;;;4159278;28;20033;-67
2021/08/25 03:31:00;;;;;;;11.50;7.78;;;15.20;99.90;;;;;;4159971;28;20095;-67
2021/08/25 03:33:06;;;;;;;10.98;5.57;;;15.20;99.90;;;;;;4159732;28;20068;-67
2021/08/25 03:35:07;;;;;;;6.30;4.35;;;15.20;99.90;;;;;;4160842;28;20095;-67
2021/08/25 03:37:08;;;;;;;6.95;4.40;;;15.20;99.90;;;;;;4159426;28;20033;-66
2021/08/25 03:39:09;;;;;;;6.30;3.97;;;15.30;99.90;;;;;;4160506;28;20547;-67
2021/08/25 03:41:11;;;;;;;5.78;4.22;;;15.30;99.90;;;;;;4159655;28;20084;-67
2021/08/25 03:43:12;;;;;;;6.82;4.80;;;15.10;99.90;;;;;;4159903;28;20108;-66
2021/08/25 03:45:13;;;;;;;10.48;6.97;;;15.20;99.90;;;;;;4160022;28;20048;-67
2021/08/25 03:47:14;;;;;;;11.50;9.50;;;15.20;99.90;;;;;;4159556;28;20163;-66
2021/08/25 03:49:15;;;;;;;11.82;10.43;;;15.20;99.90;;;;;;4153462;28;20038;-70
2021/08/25 03:51:17;;;;;;;14.55;10.32;;;15.30;99.90;;;;;;4142959;28;20037;-67
2021/08/25 03:53:18;;;;;;;14.35;6.35;;;15.30;99.90;;;;;;4148655;28;20033;-66
2021/08/25 03:55:20;;;;;;;8.63;4.32;;;15.30;99.90;;;;;;4159005;28;20103;-67
2021/08/25 03:57:21;;;;;;;7.43;3.88;;;15.30;99.90;;;;;;4159978;28;20029;-66
2021/08/25 03:59:23;;;;;;;4.72;3.50;;;15.30;99.90;;;;;;4158900;28;20045;-67
2021/08/25 04:01:24;;;;;;;8.23;3.88;;;15.30;99.90;;;;;;4147108;28;20421;-66
2021/08/25 04:03:25;;;;;;;3.33;2.25;;;15.20;99.90;;;;;;4143001;28;20108;-67
2021/08/25 04:05:27;;;;;;;3.33;2.97;;;15.30;99.90;;;;;;4143911;28;20037;-67
2021/08/25 04:07:28;;;;;;;4.75;2.60;;;15.30;99.90;;;;;;4142689;28;20083;-67
2021/08/25 04:09:29;;;;;;;5.57;3.78;;;15.30;99.90;;;;;;4143252;28;20034;-67
2021/08/25 04:11:31;;;;;;;9.65;4.40;;;15.30;99.90;;;;;;4143134;28;20061;-65
2021/08/25 04:13:32;;;;;;;9.10;5.60;;;15.30;99.90;;;;;;4142890;28;20108;-65
2021/08/25 04:15:33;;;;;;;6.50;5.88;;;15.30;99.90;;;;;;4144523;28;20369;-66
2021/08/25 04:17:34;;;;;;;5.65;4.38;;;15.30;99.90;;;;;;4142147;28;20038;-66
2021/08/25 04:19:36;;;;;;;11.35;5.40;;;15.30;99.90;;;;;;4143055;28;20034;-66
2021/08/25 04:21:37;;;;;;;8.55;5.47;;;15.30;99.90;;;;;;4142237;28;20042;-67
2021/08/25 04:23:38;;;;;;;5.00;4.53;;;15.20;99.90;;;;;;4143101;28;20494;-67
2021/08/25 04:25:41;;;;;;;5.97;4.90;;;15.20;99.90;;;;;;4144165;28;20046;-66
2021/08/25 04:27:42;;;;;;;9.85;5.32;;;15.10;99.90;;;;;;4143321;28;20405;-67
2021/08/25 04:29:43;;;;;;;5.25;3.40;;;15.10;99.90;;;;;;4141435;28;20371;-67
2021/08/25 04:31:45;;;;;;;5.97;3.40;;;15.10;99.90;;;;;;4141736;28;20042;-67
2021/08/25 04:33:47;;;;;;;1.40;1.30;;;15.10;99.90;;;;;;4141400;28;20033;-68
2021/08/25 04:35:49;;;;;;;3.55;2.05;;;15.00;99.90;;;;;;4142728;28;20033;-67
2021/08/25 04:37:50;;;;;;;1.73;1.63;;;15.00;99.90;;;;;;4142098;28;20493;-66
2021/08/25 04:39:51;;;;;;;7.47;3.53;;;15.00;99.90;;;;;;4143068;28;20478;-66
2021/08/25 04:41:52;;;;;;;4.45;2.08;;;14.90;99.90;;;;;;4141884;28;20021;-65
2021/08/25 04:43:55;;;;;;;4.70;3.03;;;14.80;99.90;;;;;;4143450;28;20108;-66
2021/08/25 04:45:56;;;;;;;4.82;3.22;;;14.80;99.90;;;;;;4142240;28;20038;-67
2021/08/25 04:47:58;;;;;;;5.20;3.25;;;14.80;99.90;;;;;;4142419;28;20038;-67
2021/08/25 04:49:59;;;;;;;3.90;2.63;;;14.80;99.90;;;;;;4142379;28;20111;-67
2021/08/25 04:52:00;;;;;;;4.97;3.75;;;14.80;99.90;;;;;;4141715;28;20022;-67
2021/08/25 04:54:02;;;;;;;5.05;3.08;;;14.80;99.90;;;;;;4143108;28;20050;-67
2021/08/25 04:56:03;;;;;;;2.58;2.35;;;14.80;99.90;;;;;;4141697;28;20080;-66
2021/08/25 04:58:05;;;;;;;3.92;2.60;;;14.70;99.90;;;;;;4142905;28;20030;-66
2021/08/25 05:00:07;;;;;;;12.00;5.55;;;14.70;99.90;;;;;;4151571;28;20041;-67
2021/08/25 05:02:08;;;;;;;2.88;2.67;;;14.70;99.90;;;;;;4157433;28;20033;-67
2021/08/25 05:04:09;;;;;;;1.52;1.40;;;14.70;99.90;;;;;;4157605;28;20045;-66
2021/08/25 05:06:11;;;;;;;6.68;3.25;;;14.60;99.90;;;;;;4145718;28;20088;-65
2021/08/25 05:08:12;;;;;;;5.13;4.63;;;14.60;99.90;;;;;;4141383;28;20088;-66
2021/08/25 05:10:14;;;;;;;1.45;1.33;;;14.60;99.90;;;;;;4140099;28;20072;-67
2021/08/25 05:12:17;;;;;;;4.63;3.10;;;14.60;99.90;;;;;;4156250;28;20456;-68
2021/08/25 05:14:18;;;;;;;5.05;3.65;;;14.60;99.90;;;;;;4156240;28;20079;-67
2021/08/25 05:16:20;;;;;;;3.20;2.90;;;14.70;99.90;;;;;;4172160;28;20420;-66
2021/08/25 05:18:21;;;;;;;2.38;2.08;;;14.70;99.90;;;;;;4156578;28;20038;-67
2021/08/25 05:20:22;;;;;;;3.05;1.33;;;14.70;99.90;;;;;;4149748;28;20091;-67
2021/08/25 05:22:23;;;;;;;2.40;1.55;;;14.80;99.90;;;;;;4156183;28;20049;-67
2021/08/25 05:24:24;;;;;;;3.33;2.30;;;14.80;99.90;;;;;;4157723;28;20548;-67
2021/08/25 05:26:25;;;;;;;4.10;3.50;;;14.80;99.90;;;;;;4143474;28;20037;-67
2021/08/25 05:28:38;;;;;;;3.45;2.30;;;14.80;99.90;;;;;;4156539;28;20099;-67
2021/08/25 05:30:39;;;;;;;1.52;1.42;;;14.80;99.90;;;;;;4145541;28;20116;-67
2021/08/25 05:32:40;;;;;;;3.65;2.63;;;14.80;99.90;;;;;;4142310;28;20547;-68
2021/08/25 05:34:41;;;;;;;3.85;1.52;;;14.80;99.90;;;;;;4140631;28;20037;-61
2021/08/25 05:36:42;;;;;;;3.95;3.13;;;14.80;99.90;;;;;;4142158;28;20088;-62
2021/08/25 05:38:44;;;;;;;2.08;1.98;;;14.80;99.90;;;;;;4140513;28;20033;-67
2021/08/25 05:40:45;;;;;;;3.20;1.45;;;14.70;99.90;;;;;;4141752;28;20092;-67
2021/08/25 05:42:46;;;;;;;4.65;2.17;;;14.70;99.90;;;;;;4140772;28;20042;-66
2021/08/25 05:44:47;;;;;;;4.78;3.08;;;14.80;99.90;;;;;;4142055;28;20045;-66
2021/08/25 05:46:48;;;;;;;3.97;2.78;;;14.80;99.90;;;;;;4140356;28;20038;-67
2021/08/25 05:48:49;;;;;;;2.33;2.05;;;14.80;99.90;;;;;;4141509;28;20084;-66
2021/08/25 05:50:51;;;;;;;3.10;2.40;;;14.80;99.90;;;;;;4141676;28;20139;-67
2021/08/25 05:52:53;;;;;;;2.60;1.73;;;14.90;99.90;;;;;;4141328;28;20026;-67
2021/08/25 05:54:55;;;;;;;3.65;1.85;;;14.90;99.90;;;;;;4141052;28;20096;-66
2021/08/25 05:56:56;;;;;;;1.98;1.30;;;14.90;99.90;;;;;;4140559;28;20028;-67
2021/08/25 05:58:57;;;;;;;1.55;1.30;;;14.90;99.90;;;;;;4141252;28;20367;-65
2021/08/25 06:00:58;;;;;;;1.55;1.30;;;14.90;99.90;;;;;;4140095;28;20037;-67
2021/08/25 06:03:00;;;;;;;5.78;2.00;;;15.00;99.90;;;;;;4141544;28;20440;-66
2021/08/25 06:05:01;;;;;;;5.70;2.42;;;14.90;99.90;;;;;;4140513;28;20896;-67
2021/08/25 06:07:02;;;;;;;1.33;1.23;;;14.90;99.90;;;;;;4141130;28;20092;-67
2021/08/25 06:09:06;;;;;;;2.95;1.17;;;14.90;99.90;;;;;;4139986;28;20034;-67
2021/08/25 06:11:07;;;;;;;2.17;0.95;;;14.90;99.90;;;;;;4141322;28;20029;-67
2021/08/25 06:13:08;;;;;;;4.95;1.30;;;14.90;99.90;;;;;;4139835;28;20549;-67
2021/08/25 06:15:10;;;;;;;3.08;0.98;;;14.90;99.90;;;;;;4141643;28;20080;-66
2021/08/25 06:17:11;;;;;;;2.40;1.48;;;14.90;99.90;;;;;;4140793;28;20089;-67
2021/08/25 06:19:12;;;;;;;4.30;1.65;;;15.00;99.90;;;;;;4139084;28;20410;-66
2021/08/25 06:21:17;;;;;;;2.15;1.30;;;15.00;99.90;;;;;;4140103;28;20084;-67
2021/08/25 06:23:19;;;;;;;2.65;1.27;;;15.10;99.90;;;;;;4140607;28;20108;-67
2021/08/25 06:25:20;;;;;;;1.65;1.40;;;15.10;99.90;;;;;;4141053;28;20470;-67
2021/08/25 06:27:21;;;;;;;3.60;1.38;;;15.10;99.90;;;;;;4138956;28;20096;-67
2021/08/25 06:29:22;;;;;;;2.90;1.25;;;15.10;99.90;;;;;;4141299;28;20029;-66
2021/08/25 06:31:23;;;;;;;1.75;1.58;;;15.20;99.90;;;;;;4140149;28;20029;-65
2021/08/25 06:33:24;;;;;;;2.28;1.65;;;15.20;99.90;;;;;;4140971;28;20540;-66
2021/08/25 06:35:26;;;;;;;2.75;1.58;;;15.20;99.90;;;;;;4140396;28;20084;-66
2021/08/25 06:37:27;;;;;;;2.17;1.70;;;15.20;99.90;;;;;;4141715;28;20026;-66
2021/08/25 06:39:28;;;;;;;3.63;1.48;;;15.10;99.90;;;;;;4140330;28;20438;-67
2021/08/25 06:41:29;;;;;;;3.97;1.75;;;15.10;99.90;;;;;;4141456;28;20034;-67
2021/08/25 06:43:31;;;;;;;3.67;2.55;;;15.10;99.90;;;;;;4139937;28;20111;-66
2021/08/25 06:45:32;;;;;;;3.45;2.40;;;15.10;99.90;;;;;;4141912;28;20502;-67
2021/08/25 06:47:33;;;;;;;4.05;2.70;;;15.20;99.90;;;;;;4140088;28;20038;-66
2021/08/25 06:49:34;;;;;;;4.60;2.70;;;15.20;99.90;;;;;;4141206;28;20532;-66
2021/08/25 06:51:35;;;;;;;5.45;2.60;;;15.30;99.90;;;;;;4140281;28;20080;-66
2021/08/25 06:53:36;;;;;;;6.47;2.80;;;15.30;99.90;;;;;;4140694;28;20033;-66
2021/08/25 06:55:37;;;;;;;4.90;3.53;;;15.30;99.90;;;;;;4140664;28;20555;-66
2021/08/25 06:57:39;;;;;;;5.13;3.38;;;15.30;99.90;;;;;;4139914;28;20030;-66
2021/08/25 06:59:40;;;;;;;5.55;3.75;;;15.30;99.90;;;;;;4141246;28;20046;-66
2021/08/25 07:01:41;;;;;;;6.55;4.03;;;15.30;99.90;;;;;;4139699;28;20469;-67
2021/08/25 07:03:42;;;;;;;10.15;3.95;;;15.40;99.90;;;;;;4139462;28;20050;-68
2021/08/25 07:05:43;;;;;;;5.18;3.40;;;15.50;99.90;;;;;;4139780;28;20038;-67
2021/08/25 07:07:44;;;;;;;3.90;2.75;;;15.50;99.90;;;;;;4141237;28;20381;-66
2021/08/25 07:09:46;;;;;;;3.45;2.53;;;15.40;99.90;;;;;;4139702;28;20029;-68
2021/08/25 07:11:47;;;;;;;5.25;2.65;;;15.40;99.90;;;;;;4140944;28;20116;-65
2021/08/25 07:13:48;;;;;;;3.70;2.72;;;15.50;99.90;;;;;;4140212;28;20049;-65
2021/08/25 07:15:49;;;;;;;4.55;2.42;;;15.50;99.90;;;;;;4141574;28;20409;-67
2021/08/25 07:17:50;;;;;;;4.05;2.38;;;15.50;99.90;;;;;;4139693;28;20073;-67
2021/08/25 07:19:52;;;;;;;5.95;2.95;;;15.50;99.90;;;;;;4140543;28;20447;-66
2021/08/25 07:21:53;;;;;;;4.68;2.42;;;15.50;99.90;;;;;;4140053;28;20119;-67
2021/08/25 07:23:54;;;;;;;5.68;3.47;;;15.40;99.90;;;;;;4140488;28;20038;-67
2021/08/25 07:25:56;;;;;;;2.45;2.20;;;15.40;99.90;;;;;;4140093;28;20042;-66
2021/08/25 07:27:57;;;;;;;4.65;2.45;;;15.40;99.90;;;;;;4140059;28;20102;-66
2021/08/25 07:29:58;;;;;;;4.88;2.08;;;15.40;99.90;;;;;;4140497;28;20038;-67
2021/08/25 07:32:02;;;;;;;2.50;2.20;;;15.40;99.90;;;;;;4139473;28;20463;-66
2021/08/25 07:34:04;;;;;;;2.78;1.83;;;15.40;99.90;;;;;;4140841;28;20116;-67
2021/08/25 07:36:06;;;;;;;3.78;1.83;;;15.40;99.90;;;;;;4139537;28;20627;-66
2021/08/25 07:38:07;;;;;;;5.13;2.13;;;15.40;99.90;;;;;;4140704;28;20168;-65
2021/08/25 07:40:09;;;;;;;3.85;1.92;;;15.50;99.90;;;;;;4139507;28;20151;-68
2021/08/25 07:42:10;;;;;;;2.05;1.67;;;15.50;99.90;;;;;;4140445;28;20137;-66
2021/08/25 07:44:11;;;;;;;3.55;2.00;;;15.60;99.90;;;;;;4139262;28;20091;-66
2021/08/25 07:46:13;;;;;;;3.00;1.77;;;15.60;99.90;;;;;;4140974;28;20410;-66
2021/08/25 07:48:14;;;;;;;3.33;2.03;;;15.60;99.90;;;;;;4138931;28;20042;-67
2021/08/25 07:50:16;;;;;;;3.80;1.95;;;15.60;99.90;;;;;;4140933;28;20046;-66
2021/08/25 07:52:17;;;;;;;2.65;1.85;;;15.80;99.90;;;;;;4139515;28;20014;-66
2021/08/25 07:54:19;;;;;;;5.28;1.73;;;15.70;99.90;;;;;;4140284;28;20505;-66
2021/08/25 07:56:20;;;;;;;2.20;1.70;;;15.60;99.90;;;;;;4139512;28;20092;-66
2021/08/25 07:58:21;;;;;;;2.45;1.58;;;15.60;99.90;;;;;;4139896;28;20054;-66
2021/08/25 08:00:22;;;;;;;5.25;1.67;;;15.60;99.90;;;;;;4139829;28;20192;-66
2021/08/25 08:02:23;;;;;;;2.00;1.80;;;15.60;99.90;;;;;;4139253;28;20136;-66
2021/08/25 08:04:26;;;;;;;2.55;1.60;;;15.60;99.90;;;;;;4140437;28;20046;-66
2021/08/25 08:06:27;;;;;;;2.63;1.60;;;15.70;99.90;;;;;;4139083;28;20549;-65
2021/08/25 08:08:28;;;;;;;3.00;2.05;;;15.70;99.90;;;;;;4140096;28;20069;-66
2021/08/25 08:10:30;;;;;;;4.65;2.08;;;15.70;99.90;;;;;;4142173;28;20026;-67
2021/08/25 08:12:31;;;;;;;2.92;2.20;;;15.70;99.90;;;;;;4143248;28;20050;-66
2021/08/25 08:14:32;;;;;;;2.70;2.10;;;15.70;99.90;;;;;;4141889;28;20535;-65
2021/08/25 08:16:35;;;;;;;3.13;2.33;;;15.60;99.90;;;;;;4143932;28;20104;-66
2021/08/25 08:18:41;;;;;;;2.58;2.00;;;15.60;99.90;;;;;;4139736;28;20580;-65
2021/08/25 08:20:42;;;;;;;3.60;2.80;;;15.60;99.90;;;;;;4143194;28;20073;-67
2021/08/25 08:22:43;;;;;;;9.45;4.65;;;15.60;99.90;;;;;;4141631;28;20069;-66
2021/08/25 08:24:44;;;;;;;5.20;2.88;;;15.60;99.90;;;;;;4142840;28;20042;-67
2021/08/25 08:26:46;;;;;;;5.03;2.30;;;15.70;99.90;;;;;;4141399;28;20034;-67
2021/08/25 08:28:47;;;;;;;4.38;2.00;;;15.60;99.90;;;;;;4142593;28;20084;-67
2021/08/25 08:30:48;;;;;;;3.60;2.58;;;15.70;99.90;;;;;;4142213;28;20064;-66
2021/08/25 08:32:50;;;;;;;8.18;2.50;;;15.70;99.90;;;;;;4141968;28;20054;-67
2021/08/25 08:34:51;;;;;;;5.28;1.90;;;15.70;99.90;;;;;;4142702;28;20111;-66
2021/08/25 08:36:52;;;;;;;3.03;2.55;;;15.70;99.90;;;;;;4141518;28;20030;-66
2021/08/25 08:38:54;;;;;;;4.65;2.83;;;15.70;99.90;;;;;;4142645;28;20118;-66
2021/08/25 08:40:55;;;;;;;5.80;4.80;;;15.80;99.90;;;;;;4141789;28;20104;-66
2021/08/25 08:43:04;;;;;;;6.03;5.43;;;15.80;99.90;;;;;;4142423;28;20070;-67
2021/08/25 08:45:07;;;;;;;8.40;3.88;;;15.80;99.90;;;;;;4141278;28;20474;-67
2021/08/25 08:47:09;;;;;;;5.18;3.75;;;15.70;99.90;;;;;;4143102;28;20100;-65
2021/08/25 08:49:12;;;;;;;4.50;3.40;;;15.70;99.90;;;;;;4141787;28;20735;-67
2021/08/25 08:51:22;;;;;;;3.08;1.83;;;15.80;99.90;;;;;;4142332;28;20552;-67
2021/08/25 08:53:23;;;;;;;5.82;4.88;;;15.90;99.90;;;;;;4141338;28;20073;-68
2021/08/25 08:55:25;;;;;;;5.05;4.03;;;15.90;99.90;;;;;;4142445;28;20037;-67
2021/08/25 08:57:26;;;;;;;5.53;2.55;;;15.90;99.90;;;;;;4141385;28;20087;-67
2021/08/25 08:59:27;;;;;;;4.70;3.65;;;15.90;99.90;;;;;;4157247;28;20050;-66
2021/08/25 09:01:29;;;;;;;3.15;2.55;;;16.00;99.90;;;;;;4141067;28;20500;-67
2021/08/25 09:03:34;;;;;;;3.08;2.72;;;16.00;99.90;;;;;;4141859;28;20033;-67
2021/08/25 09:05:35;;;;;;;4.53;4.05;;;16.00;99.90;;;;;;4141474;28;20080;-67
2021/08/25 09:07:36;;;;;;;10.10;5.43;;;16.00;99.90;;;;;;4142013;28;20095;-67
2021/08/25 09:09:55;;;;;;;6.72;4.10;;;16.10;99.90;;;;;;4141815;28;20088;-68
2021/08/25 09:11:56;;;;;;;4.13;2.53;;;16.10;99.90;;;;;;4141368;28;20088;-68
2021/08/25 09:14:10;;;;;;;3.40;2.22;;;16.20;99.90;;;;;;4141739;28;20371;-66
2021/08/25 09:16:25;;;;;;;3.67;2.58;;;16.10;99.90;;;;;;4141841;28;20021;-67
2021/08/25 09:18:27;;;;;;;2.97;2.30;;;16.20;99.90;;;;;;4141640;28;20037;-67
2021/08/25 09:20:30;;;;;;;3.63;2.28;;;16.20;99.90;;;;;;4140835;28;20450;-67
2021/08/25 09:22:31;;;;;;;5.30;2.50;;;16.10;99.90;;;;;;4141490;28;20125;-67
2021/08/25 09:24:40;;;;;;;7.13;2.75;;;16.10;99.90;;;;;;4140902;28;20050;-68
2021/08/25 09:27:05;;;;;;;5.38;2.28;;;16.10;99.90;;;;;;4142086;28;20544;-67
2021/08/25 09:29:20;;;;;;;1.75;1.65;;;16.20;99.90;;;;;;4140932;28;20080;-67
2021/08/25 09:31:21;;;;;;;3.47;2.80;;;16.30;99.90;;;;;;4141831;28;20042;-66
2021/08/25 09:33:26;;;;;;;6.68;2.60;;;16.30;99.90;;;;;;4140832;28;20541;-67
2021/08/25 09:35:40;;;;;;;5.47;3.10;;;16.30;99.90;;;;;;4141997;28;20034;-67
2021/08/25 09:37:56;;;;;;;3.13;2.58;;;16.40;99.90;;;;;;4141052;28;20034;-67
2021/08/25 09:40:00;;;;;;;4.35;3.42;;;16.40;99.90;;;;;;4141483;28;20103;-66
2021/08/25 09:42:04;;;;;;;4.00;2.65;;;16.30;99.90;;;;;;4155622;28;20033;-68
2021/08/25 09:44:15;;;;;;;5.45;4.60;;;16.30;99.90;;;;;;4141773;28;20029;-68
2021/08/25 09:46:19;;;;;;;7.85;6.93;;;16.40;99.90;;;;;;4141367;28;20843;-68
2021/08/25 09:48:32;;;;;;;6.38;4.88;;;16.40;99.90;;;;;;4142274;28;20042;-67
2021/08/25 09:50:33;;;;;;;5.03;4.63;;;16.50;99.90;;;;;;4140624;28;20042;-67
2021/08/25 09:52:35;;;;;;;4.68;3.80;;;16.50;99.90;;;;;;4141559;28;20072;-66
2021/08/25 09:54:36;;;;;;;3.47;2.58;;;16.50;99.90;;;;;;4140524;28;20046;-66
2021/08/25 09:56:39;;;;;;;4.90;2.35;;;16.50;99.90;;;;;;4141072;28;20092;-66
2021/08/25 09:58:41;;;;;;;3.40;3.10;;;16.40;99.90;;;;;;4140504;28;20041;-65
2021/08/25 10:00:43;;;;;;;7.65;5.00;;;16.40;99.90;;;;;;4141423;28;20060;-65
2021/08/25 10:02:45;;;;;;;5.60;2.40;;;16.40;99.90;;;;;;4140533;28;20472;-66
2021/08/25 10:04:46;;;;;;;3.22;1.92;;;16.40;99.90;;;;;;4142149;28;20868;-67
2021/08/25 10:06:49;;;;;;;6.03;1.88;;;16.50;99.90;;;;;;4155112;28;20064;-66
2021/08/25 10:08:51;;;;;;;4.15;2.08;;;16.40;99.90;;;;;;4141627;28;20041;-69
2021/08/25 10:10:53;;;;;;;4.43;1.85;;;16.40;99.90;;;;;;4140485;28;20100;-67
2021/08/25 10:12:54;;;;;;;2.67;1.90;;;16.40;99.90;;;;;;4139248;28;20193;-68
2021/08/25 10:14:55;;;;;;;3.00;2.40;;;16.40;99.90;;;;;;4140668;28;20309;-67
2021/08/25 10:16:56;;;;;;;2.03;1.90;;;16.40;99.90;;;;;;4140502;28;20034;-66
2021/08/25 10:19:26;;;;;;;2.80;2.30;;;16.40;99.90;;;;;;4140735;28;20555;-66
2021/08/25 10:21:33;;;;;;;2.85;2.40;;;16.30;99.90;;;;;;4140655;28;20421;-67
2021/08/25 10:23:59;;;;;;;7.03;2.25;;;16.30;99.90;;;;;;4140751;28;20469;-68
2021/08/25 10:26:05;;;;;;;3.58;2.40;;;16.30;99.90;;;;;;4140993;28;20042;-66
2021/08/25 10:28:08;;;;;;;4.28;2.47;;;16.40;99.90;;;;;;4139549;28;20034;-65
2021/08/25 10:30:12;;;;;;;3.53;2.50;;;16.30;99.90;;;;;;4140767;28;20099;-67
2021/08/25 10:32:13;;;;;;;4.80;2.47;;;16.40;99.90;;;;;;4139412;28;20037;-68
2021/08/25 10:34:17;;;;;;;2.72;2.20;;;16.40;99.90;;;;;;4140536;28;20026;-67
2021/08/25 10:36:23;;;;;;;3.85;2.58;;;16.50;99.90;;;;;;4140397;28;20030;-66